page 5239 of 1010015 registered users

eBook PostsUsers

  1. 0knife5cougar registered @ 2013-01-04 12:01:23, last login @ 2013-01-04 12:01:23
  2. 0washerdoctor79 registered @ 2013-01-04 12:01:28, last login @ 2013-01-04 12:01:28
  3. 0diving8tanker registered @ 2013-01-04 12:01:46, last login @ 2013-01-04 12:01:46
  4. 0grease08bulb registered @ 2013-01-04 12:01:53, last login @ 2013-01-04 12:01:53
  5. 0curlernet27 registered @ 2013-01-04 12:01:56, last login @ 2013-01-04 12:01:56
  6. 0rajat04jain registered @ 2013-01-04 12:03:39, last login @ 2013-01-04 12:03:39
  7. 0cymbal48goal registered @ 2013-01-04 12:03:57, last login @ 2013-01-04 12:03:57
  8. 0donnachord82 registered @ 2013-01-04 12:04:16, last login @ 2013-01-04 12:04:16
  9. 0ndhwmblin registered @ 2013-01-04 12:04:31, last login @ 2013-01-04 12:04:31
  10. 0chord14head registered @ 2013-01-04 12:05:54, last login @ 2013-01-04 12:05:54
  11. 0temple3crayon registered @ 2013-01-04 12:06:18, last login @ 2013-01-04 12:06:18
  12. 0EricWhite registered @ 2013-01-04 12:07:12, last login @ 2013-01-04 12:07:12
  13. 0boat18violet registered @ 2013-01-04 12:07:31, last login @ 2013-01-04 12:07:31
  14. 0fruit5dragon registered @ 2013-01-04 12:08:01, last login @ 2013-01-04 12:08:01
  15. 0whalesweets13 registered @ 2013-01-04 12:08:19, last login @ 2013-01-04 12:08:19
  16. 0mother3goose registered @ 2013-01-04 12:09:13, last login @ 2013-01-04 12:09:13
  17. 0ironcast76 registered @ 2013-01-04 12:09:29, last login @ 2013-01-04 12:48:09
  18. 0twistteeth6 registered @ 2013-01-04 12:09:29, last login @ 2013-01-04 12:09:29
  19. 0spark95trip registered @ 2013-01-04 12:10:19, last login @ 2013-01-04 12:10:19
  20. 0Sunnymty registered @ 2013-01-04 12:10:29, last login @ 2013-01-04 12:10:29
  21. 0leo8ear registered @ 2013-01-04 12:10:48, last login @ 2013-01-04 12:10:48
  22. 0notifycarp7 registered @ 2013-01-04 12:12:38, last login @ 2013-01-04 12:34:25
  23. 0actorvacuum0 registered @ 2013-01-04 12:12:58, last login @ 2013-01-04 12:12:58
  24. 0alarm6bail registered @ 2013-01-04 12:13:03, last login @ 2013-01-04 12:32:13
  25. 0theseahagger registered @ 2013-01-04 12:14:13, last login @ 2013-01-04 12:22:17
  26. 0storelung1 registered @ 2013-01-04 12:15:04, last login @ 2013-01-04 12:15:04
  27. 0pushsilk89 registered @ 2013-01-04 12:16:18, last login @ 2013-01-04 12:16:18
  28. 0knightfear36 registered @ 2013-01-04 12:16:33, last login @ 2013-01-04 12:16:33
  29. 0beef2cough registered @ 2013-01-04 12:16:37, last login @ 2013-01-04 12:16:37
  30. 0bengal9mile registered @ 2013-01-04 12:16:54, last login @ 2013-01-04 12:16:54
  31. 0death71mouse registered @ 2013-01-04 12:17:26, last login @ 2013-01-04 12:17:26
  32. 0wrenchnickel81 registered @ 2013-01-04 12:17:41, last login @ 2013-01-04 12:17:41
  33. 0ankle73clam registered @ 2013-01-04 12:18:02, last login @ 2013-01-04 12:18:02
  34. 0nylon70bead registered @ 2013-01-04 12:18:08, last login @ 2013-01-04 12:37:04
  35. 0toast0heaven registered @ 2013-01-04 12:18:37, last login @ 2013-01-04 12:18:37
  36. 0taximom4 registered @ 2013-01-04 12:22:34, last login @ 2013-01-04 12:22:34
  37. 0riya_aparna_5 registered @ 2013-01-04 12:22:40, last login @ 2013-01-04 12:22:40
  38. 0bugleteller45 registered @ 2013-01-04 12:22:51, last login @ 2013-01-04 12:22:51
  39. 0nighticicle21 registered @ 2013-01-04 12:23:54, last login @ 2013-01-04 12:45:27
  40. 0guide68magic registered @ 2013-01-04 12:24:01, last login @ 2013-01-04 12:44:15
  41. 0weedknife4 registered @ 2013-01-04 12:24:03, last login @ 2013-01-04 12:24:03
  42. 0milk71toad registered @ 2013-01-04 12:24:29, last login @ 2013-01-04 12:24:29
  43. 0pantyboy4 registered @ 2013-01-04 12:24:44, last login @ 2013-01-04 12:24:44
  44. 0sweets95cone registered @ 2013-01-04 12:24:56, last login @ 2013-01-04 12:24:56
  45. 0tin15comic registered @ 2013-01-04 12:25:13, last login @ 2013-01-04 12:25:13
  46. 0jeeplarch06 registered @ 2013-01-04 12:25:26, last login @ 2013-01-04 12:25:26
  47. 0april95wound registered @ 2013-01-04 12:26:27, last login @ 2013-01-04 12:26:27
  48. 0lissusimonenpien registered @ 2013-01-04 12:26:52, last login @ 2013-01-04 12:26:52
  49. 0august1crowd registered @ 2013-01-04 12:27:09, last login @ 2013-01-04 12:27:09
  50. 0zoodrink8 registered @ 2013-01-04 12:27:51, last login @ 2013-01-04 12:27:51
  51. 0cakeorange14 registered @ 2013-01-04 12:29:13, last login @ 2013-01-04 12:29:13
  52. 0lier60drive registered @ 2013-01-04 12:29:18, last login @ 2013-01-04 12:29:18
  53. 0chip_xipo registered @ 2013-01-04 12:29:36, last login @ 2013-01-04 12:31:59
  54. 0gun5drive registered @ 2013-01-04 12:29:43, last login @ 2013-01-04 12:29:43
  55. 0ovalcrown5 registered @ 2013-01-04 12:30:30, last login @ 2013-01-04 12:30:30
  56. 0bowlprison4 registered @ 2013-01-04 12:31:12, last login @ 2013-01-04 12:49:13
  57. 0edger12pain registered @ 2013-01-04 12:31:28, last login @ 2013-01-04 12:31:28
  58. 0agenda27match registered @ 2013-01-04 12:32:05, last login @ 2013-01-04 12:32:05
  59. 0brandsquash28 registered @ 2013-01-04 12:32:14, last login @ 2013-01-04 12:52:25
  60. 0sonteller55 registered @ 2013-01-04 12:32:16, last login @ 2013-01-04 12:32:16
  61. 0jill2701 registered @ 2013-01-04 12:33:11, last login @ 2013-01-04 12:33:11
  62. 0farm66look registered @ 2013-01-04 12:33:35, last login @ 2013-01-04 12:33:35
  63. 0grambus9 registered @ 2013-01-04 12:34:29, last login @ 2013-01-04 12:34:29
  64. 0tramptank2 registered @ 2013-01-04 12:37:17, last login @ 2013-01-04 12:37:17
  65. 0castkettle29 registered @ 2013-01-04 12:37:37, last login @ 2013-01-04 12:37:37
  66. 0legalgrowth12 registered @ 2013-01-04 12:38:45, last login @ 2013-01-04 12:38:45
  67. 0cycledeal87 registered @ 2013-01-04 12:39:07, last login @ 2013-01-04 12:39:07
  68. 0coursedavid9 registered @ 2013-01-04 12:39:41, last login @ 2013-01-04 12:39:41
  69. 0domain17close registered @ 2013-01-04 12:39:57, last login @ 2013-01-04 12:39:57
  70. 0sail6turret registered @ 2013-01-04 12:40:16, last login @ 2013-01-04 12:40:16
  71. 0detailelbow0 registered @ 2013-01-04 12:40:25, last login @ 2013-01-04 12:40:25
  72. 0nepalowl1 registered @ 2013-01-04 12:40:40, last login @ 2013-01-04 12:40:40
  73. 0outputtoilet0 registered @ 2013-01-04 12:43:02, last login @ 2013-01-04 12:43:02
  74. 0bomb3garlic registered @ 2013-01-04 12:43:37, last login @ 2013-01-04 12:43:37
  75. 0grey56drink registered @ 2013-01-04 12:44:17, last login @ 2013-01-04 12:44:17
  76. 0beerneon06 registered @ 2013-01-04 12:44:45, last login @ 2013-01-04 12:44:45
  77. 0enemy33ground registered @ 2013-01-04 12:45:20, last login @ 2013-01-04 12:45:20
  78. 0vase62coil registered @ 2013-01-04 12:46:18, last login @ 2013-01-04 12:46:18
  79. 0slope3whorl registered @ 2013-01-04 12:46:48, last login @ 2013-01-04 12:46:48
  80. 0tjpnet12 registered @ 2013-01-04 12:47:00, last login @ 2013-01-04 12:47:00
  81. 0harbor2lung registered @ 2013-01-04 12:47:10, last login @ 2013-01-04 12:47:10
  82. 0makemoney35 registered @ 2013-01-04 12:48:17, last login @ 2013-01-04 12:48:17
  83. 0corn8kitty registered @ 2013-01-04 12:48:21, last login @ 2013-01-04 12:59:04
  84. 0pain34bean registered @ 2013-01-04 12:48:37, last login @ 2013-01-04 12:48:37
  85. 0dew1mile registered @ 2013-01-04 12:49:11, last login @ 2013-01-04 12:49:11
  86. 0sumaekolasaurus registered @ 2013-01-04 12:49:22, last login @ 2013-01-04 12:49:22
  87. 0eight0uncle registered @ 2013-01-04 12:49:58, last login @ 2013-01-04 12:49:58
  88. 0DaringDirker registered @ 2013-01-04 12:50:44, last login @ 2013-01-04 12:50:44
  89. 0noisecurve4 registered @ 2013-01-04 12:51:14, last login @ 2013-01-04 12:51:14
  90. 0clovermark3 registered @ 2013-01-04 12:51:27, last login @ 2013-01-04 12:51:27
  91. 0templemodem3 registered @ 2013-01-04 12:52:17, last login @ 2013-01-04 12:52:17
  92. 0doctor10soy registered @ 2013-01-04 12:53:39, last login @ 2013-01-04 12:53:39
  93. 0pankaj_khandaitkar registered @ 2013-01-04 12:53:54, last login @ 2013-01-04 12:53:54
  94. 0ganderoutput37 registered @ 2013-01-04 12:54:18, last login @ 2013-01-04 12:54:18
  95. 0bat1router registered @ 2013-01-04 12:54:38, last login @ 2013-01-04 12:54:38
  96. 0crowngender4 registered @ 2013-01-04 12:56:27, last login @ 2013-01-04 12:56:27
  97. 0edge0fifth registered @ 2013-01-04 12:57:51, last login @ 2013-01-04 12:57:51
  98. 0bonecrime7 registered @ 2013-01-04 12:58:15, last login @ 2013-01-04 12:58:15
  99. 0ground1cup registered @ 2013-01-04 12:58:19, last login @ 2013-01-04 12:58:19
  100. 0taxi05thomas registered @ 2013-01-04 12:59:05, last login @ 2013-01-04 12:59:05
  101. 0kittengoat66 registered @ 2013-01-04 12:59:40, last login @ 2013-01-04 12:59:40

More...

[5249] [5248] [5247] [5246] [5245] [5244] [5243] [5242] [5241] [5240] [5239] [5238] [5237] [5236] [5235] [5234] [5233] [5232] [5231] [5230] ...[1]
Back to Top